NCAR-RAP Real-Time Weather Data

Output produced by METARs form (20 February 2019  17:50 UTC)
found at http://weather.rap.ucar.edu/surface/
 
KGRI 201653Z 25015KT 6SM HZ CLR M07/M10 A2969 RMK AO2 SLP085 T10671100
KGRI 201553Z 26010KT 5SM HZ FEW026 M08/M11 A2968 RMK AO2 SNE35 SLP085 P0001 T10781111
KGRI 201536Z 27009KT 5SM HZ OVC024 M08/M11 A2969 RMK AO2 SNE35 P0001 T10831111
KGRI 201453Z 26008KT 1SM R35/P6000FT -SN BKN026 OVC035 M08/M11 A2969 RMK AO2 SNB02 SLP087 P0001 60001 I3000 T10831111 53006
KGRI 201446Z 26006KT 1 1/4SM -SN BR BKN028 OVC035 M09/M11 A2969 RMK AO2 SNB02 P0001 T10891111
KGRI 201411Z 27006KT 1 1/4SM -SN BR BKN038 OVC050 M10/M11 A2968 RMK AO2 SNB02 P0000 T11001111
KGRI 201353Z 26004KT 2SM BR BKN055 OVC070 M10/M12 A2968 RMK AO2 SLP083 T11001117
KGRI 201351Z 27004KT 2SM BR BKN060 OVC070 M11/M12 A2968 RMK AO2
KGRI 201253Z 27004KT 3SM BR BKN046 OVC090 M12/M12 A2967 RMK AO2 SNB13E27 SLP084 P0000 T11171122
KGRI 201153Z AUTO 29004KT 4SM BR BKN075 OVC100 M09/M11 A2969 RMK AO2 SNE24 SLP087 P0000 60007 70025 T10941111 11078 21094 58018
KGRI 201127Z AUTO 29003KT 3SM BR BKN046 OVC100 M09/M10 A2970 RMK AO2 SNE24 P0000 T10891100
KGRI 201053Z AUTO 31003KT 2 1/2SM -SN BR OVC040 M08/M10 A2972 RMK AO2 SNB02 SLP096 P0001 T10831100
KGRI 201050Z AUTO 31004KT 2 1/2SM -SN BR OVC040 M08/M10 A2972 RMK AO2 SNB02 P0001
KGRI 201008Z AUTO 00000KT 1 3/4SM -SN BR BKN035 OVC070 M08/M09 A2973 RMK AO2 SNB02 P0000 T10831094
KGRI 200953Z AUTO 35003KT 4SM BR BKN055 BKN070 OVC085 M08/M10 A2974 RMK AO2 SNE39 SLP104 P0000 T10831100
KGRI 200940Z AUTO 34003KT 3SM BR BKN049 OVC080 M08/M10 A2975 RMK AO2 SNE39 P0000 T10831100
KGRI 200925Z AUTO 00000KT 2SM -SN BR OVC043 M08/M10 A2976 RMK AO2 P0000 T10781100
KGRI 200916Z AUTO 00000KT 1 3/4SM -SN BR OVC035 M08/M09 A2977 RMK AO2 P0000 T10781094
KGRI 200853Z AUTO 00000KT 1 1/4SM -SN BR OVC019 M08/M09 A2978 RMK AO2 SLP117 P0002 60006 T10781089 56038
KGRI 200843Z AUTO 00000KT 3/4SM R35/P6000FT -SN BR VV016 M08/M09 A2979 RMK AO2 P0002 T10781089
KGRI 200800Z AUTO 00000KT 1 1/2SM -SN BR OVC022 M08/M09 A2981 RMK AO2 P0000 T10781094
KGRI 200753Z AUTO 09003KT 2SM -SN BR OVC021 M08/M09 A2982 RMK AO2 SLP129 P0001 T10781089
KGRI 200727Z AUTO 08004KT 2SM -SN BR OVC025 M08/M09 A2983 RMK AO2 P0000 T10781089
KGRI 200653Z AUTO 07004KT 1 1/4SM -SN BR OVC023 M08/M09 A2985 RMK AO2 SLP141 P0003 T10781089
KGRI 200609Z AUTO 09004KT 1 1/2SM -SN BR OVC016 M08/M09 A2989 RMK AO2 P0001 T10781089
KGRI 200553Z AUTO 08003KT 2 1/2SM -SN BR BKN016 OVC025 M08/M09 A2990 RMK AO2 SNE08B27 SLP159 P0001 60018 T10781089 11078 21078 410671111 58025
KGRI 200532Z AUTO 08004KT 5SM -SN BR OVC028 M08/M09 A2990 RMK AO2 SNE08B27 P0001 T10781094
KGRI 200507Z AUTO 08005KT 4SM -SN BR SCT025 OVC033 M08/M09 A2992 RMK AO2 P0001 T10781094
KGRI 200500Z AUTO 08005KT 2 1/2SM -SN BR SCT023 OVC033 M08/M09 A2992 RMK AO2 PRESFR P0001 T10781094
KGRI 200453Z AUTO 09004KT 1 3/4SM -SN BR BKN021 OVC035 M08/M09 A2993 RMK AO2 PRESFR SLP169 P0003 T10781094
KGRI 200438Z AUTO 11004KT 1SM R35/P6000FT -SN BR VV015 M08/M09 A2995 RMK AO2 P0003 T10781089
KGRI 200421Z AUTO 11005KT 3/4SM R35/6000VP6000FT -SN BR VV014 M08/M09 A2996 RMK AO2 P0002 T10781089
KGRI 200353Z AUTO 10007KT 1 1/2SM -SN BR OVC022 M08/M09 A2997 RMK AO2 SLP184 P0006 T10781094
KGRI 200335Z AUTO 10009KT 1SM R35/P6000FT -SN BR VV016 M08/M09 A2997 RMK AO2 P0005 T10781094
KGRI 200324Z AUTO 10008KT 3/4SM R35/6000VP6000FT -SN BR VV013 M08/M09 A2997 RMK AO2 P0004 T10781094
KGRI 200317Z AUTO 10009KT 3/4SM R35/P6000FT -SN BR VV015 M08/M09 A2998 RMK AO2 P0003 T10781094
KGRI 200304Z AUTO 11009KT 3/4SM R35/P6000FT -SN BR VV013 M08/M09 A2999 RMK AO2 P0002 T10781094
KGRI 200253Z AUTO 10010KT 1SM R35/P6000FT -SN BR VV017 M08/M09 A2998 RMK AO2 SLP187 P0002 60008 T10781094 56034
KGRI 200245Z AUTO 09012KT 3/4SM R35/P6000FT -SN BR FEW009 OVC018 M08/M09 A2998 RMK AO2 P0001 T10781094
KGRI 200204Z AUTO 09014KT 1 1/4SM -SN BR BKN015 OVC020 M08/M09 A3000 RMK AO2 P0000 T10781094
KGRI 200153Z 09013KT 3/4SM R35/4500VP6000FT -SN BR BKN011 OVC020 M08/M09 A3001 RMK AO2 SLP199 P0005 T10781094
KGRI 200137Z 09014KT 3/4SM R35/6000VP6000FT -SN BR VV010 M08/M09 A3001 RMK AO2 P0003 T10781094
KGRI 200121Z 08014KT 3/4SM R35/5500V6000FT -SN BR VV009 M08/M09 A3002 RMK AO2 PRESFR P0002 T10781094
KGRI 200100Z 08013KT 3/4SM R35/6000VP6000FT -SN BR VV012 M08/M09 A3004 RMK AO2 P0001 T10781094
KGRI 200053Z 08015KT 1SM R35/P6000FT -SN BR VV013 M08/M09 A3005 RMK AO2 SNB06 SLP211 P0001 T10781094
KGRI 200045Z 08011KT 1SM R35/P6000FT -SN BR VV014 M08/M09 A3005 RMK AO2 SNB06 P0001 T10781094
KGRI 200038Z 08012KT 1SM R35/P6000FT -SN BR VV015 M08/M09 A3005 RMK AO2 SNB06 P0000 T10781094
KGRI 200021Z 09011KT 1/2SM R35/6000VP6000FT SN FZFG VV013 M08/M10 A3007 RMK AO2 SNB06 P0000 T10781100
KGRI 200010Z 09013KT 1 3/4SM -SN BR BKN012 OVC018 M08/M10 A3007 RMK AO2 SNB06 P0000 T10781100
KGRI 192353Z 08013KT 5SM BR OVC012 M08/M10 A3008 RMK AO2 SLP224 T10781100 11067 21083 58028
KGRI 192253Z 09013KT 8SM BKN013 OVC065 M07/M10 A3012 RMK AO2 SLP238 T10721100